sensor_id;sensor_type;location;lat;lon;timestamp;temperature;humidity
23801;DHT22;12081;48.614;10.226;2023-05-17T00:06:11;7.30;99.90
23801;DHT22;12081;48.614;10.226;2023-05-17T00:11:40;7.30;99.90
23801;DHT22;12081;48.614;10.226;2023-05-17T00:14:24;7.20;99.90
23801;DHT22;12081;48.614;10.226;2023-05-17T00:19:53;7.20;99.90
23801;DHT22;12081;48.614;10.226;2023-05-17T00:22:37;7.50;99.90
23801;DHT22;12081;48.614;10.226;2023-05-17T00:25:21;7.20;99.90
23801;DHT22;12081;48.614;10.226;2023-05-17T00:28:06;7.20;99.90
23801;DHT22;12081;48.614;10.226;2023-05-17T00:30:50;7.60;99.90
23801;DHT22;12081;48.614;10.226;2023-05-17T00:33:34;7.40;99.90
23801;DHT22;12081;48.614;10.226;2023-05-17T00:36:18;7.30;99.90
23801;DHT22;12081;48.614;10.226;2023-05-17T00:39:02;7.20;99.90
23801;DHT22;12081;48.614;10.226;2023-05-17T00:41:47;7.10;99.90
23801;DHT22;12081;48.614;10.226;2023-05-17T00:44:31;7.00;99.90
23801;DHT22;12081;48.614;10.226;2023-05-17T00:47:15;7.00;99.90
23801;DHT22;12081;48.614;10.226;2023-05-17T00:49:59;7.00;99.90
23801;DHT22;12081;48.614;10.226;2023-05-17T00:52:45;7.00;99.90
23801;DHT22;12081;48.614;10.226;2023-05-17T00:55:29;6.90;99.90
23801;DHT22;12081;48.614;10.226;2023-05-17T00:58:14;7.10;99.90
23801;DHT22;12081;48.614;10.226;2023-05-17T01:00:58;6.90;99.90
23801;DHT22;12081;48.614;10.226;2023-05-17T01:03:43;7.00;99.90
23801;DHT22;12081;48.614;10.226;2023-05-17T01:06:28;7.00;99.90
23801;DHT22;12081;48.614;10.226;2023-05-17T01:09:12;7.10;99.90
23801;DHT22;12081;48.614;10.226;2023-05-17T01:15:15;7.20;99.90
23801;DHT22;12081;48.614;10.226;2023-05-17T01:20:57;6.90;99.90
23801;DHT22;12081;48.614;10.226;2023-05-17T01:27:06;6.70;99.90
23801;DHT22;12081;48.614;10.226;2023-05-17T01:29:51;6.70;99.90
23801;DHT22;12081;48.614;10.226;2023-05-17T01:32:39;6.70;99.90
23801;DHT22;12081;48.614;10.226;2023-05-17T01:35:24;6.80;99.90
23801;DHT22;12081;48.614;10.226;2023-05-17T01:38:09;6.90;99.90
23801;DHT22;12081;48.614;10.226;2023-05-17T01:50:02;6.80;99.90
23801;DHT22;12081;48.614;10.226;2023-05-17T01:56:23;6.80;99.90
23801;DHT22;12081;48.614;10.226;2023-05-17T01:59:14;6.60;99.90
23801;DHT22;12081;48.614;10.226;2023-05-17T02:02:00;6.60;99.90
23801;DHT22;12081;48.614;10.226;2023-05-17T02:07:37;6.50;99.90
23801;DHT22;12081;48.614;10.226;2023-05-17T02:13:07;6.50;99.90
23801;DHT22;12081;48.614;10.226;2023-05-17T02:15:51;6.60;99.90
23801;DHT22;12081;48.614;10.226;2023-05-17T02:18:35;6.60;99.90
23801;DHT22;12081;48.614;10.226;2023-05-17T02:21:20;6.20;99.90
23801;DHT22;12081;48.614;10.226;2023-05-17T02:24:05;6.30;99.90
23801;DHT22;12081;48.614;10.226;2023-05-17T02:35:03;6.40;99.90
23801;DHT22;12081;48.614;10.226;2023-05-17T02:37:48;6.30;99.90
23801;DHT22;12081;48.614;10.226;2023-05-17T02:40:32;6.30;99.90
23801;DHT22;12081;48.614;10.226;2023-05-17T02:48:48;6.20;99.90
23801;DHT22;12081;48.614;10.226;2023-05-17T02:51:39;6.20;99.90
23801;DHT22;12081;48.614;10.226;2023-05-17T02:54:38;6.20;99.90
23801;DHT22;12081;48.614;10.226;2023-05-17T02:57:55;6.10;99.90
23801;DHT22;12081;48.614;10.226;2023-05-17T03:00:44;6.10;99.90
23801;DHT22;12081;48.614;10.226;2023-05-17T03:03:38;5.80;99.90
23801;DHT22;12081;48.614;10.226;2023-05-17T03:57:31;5.70;99.90
23801;DHT22;12081;48.614;10.226;2023-05-17T04:00:29;5.50;99.90
23801;DHT22;12081;48.614;10.226;2023-05-17T04:06:16;5.50;99.90
23801;DHT22;12081;48.614;10.226;2023-05-17T04:09:02;5.40;99.90
23801;DHT22;12081;48.614;10.226;2023-05-17T04:12:10;5.40;99.90
23801;DHT22;12081;48.614;10.226;2023-05-17T04:17:43;5.50;99.90
23801;DHT22;12081;48.614;10.226;2023-05-17T05:20:37;6.90;99.90
23801;DHT22;12081;48.614;10.226;2023-05-17T05:31:12;7.50;99.90
23801;DHT22;12081;48.614;10.226;2023-05-17T05:33:56;7.20;99.90
23801;DHT22;12081;48.614;10.226;2023-05-17T05:39:25;7.70;99.90
23801;DHT22;12081;48.614;10.226;2023-05-17T05:44:55;7.70;99.90
23801;DHT22;12081;48.614;10.226;2023-05-17T05:47:39;7.70;99.90
23801;DHT22;12081;48.614;10.226;2023-05-17T05:53:08;8.00;99.90
23801;DHT22;12081;48.614;10.226;2023-05-17T05:55:52;8.10;99.90
23801;DHT22;12081;48.614;10.226;2023-05-17T05:58:36;7.80;99.90
23801;DHT22;12081;48.614;10.226;2023-05-17T06:01:21;7.80;99.90
23801;DHT22;12081;48.614;10.226;2023-05-17T06:04:05;7.80;99.90
23801;DHT22;12081;48.614;10.226;2023-05-17T06:06:49;8.00;99.90
23801;DHT22;12081;48.614;10.226;2023-05-17T06:09:33;7.80;99.90
23801;DHT22;12081;48.614;10.226;2023-05-17T06:12:18;7.90;99.90
23801;DHT22;12081;48.614;10.226;2023-05-17T06:15:04;8.00;99.90
23801;DHT22;12081;48.614;10.226;2023-05-17T06:17:49;8.30;99.90
23801;DHT22;12081;48.614;10.226;2023-05-17T06:23:18;8.30;99.90
23801;DHT22;12081;48.614;10.226;2023-05-17T06:26:02;8.60;99.90
23801;DHT22;12081;48.614;10.226;2023-05-17T06:28:46;11.00;99.90
23801;DHT22;12081;48.614;10.226;2023-05-17T06:31:30;8.90;99.90
23801;DHT22;12081;48.614;10.226;2023-05-17T06:34:14;11.60;99.90
23801;DHT22;12081;48.614;10.226;2023-05-17T06:36:59;9.30;99.90
23801;DHT22;12081;48.614;10.226;2023-05-17T06:39:43;11.30;99.90
23801;DHT22;12081;48.614;10.226;2023-05-17T06:42:27;9.50;99.90
23801;DHT22;12081;48.614;10.226;2023-05-17T06:45:11;10.30;99.90
23801;DHT22;12081;48.614;10.226;2023-05-17T06:47:55;12.70;99.90
23801;DHT22;12081;48.614;10.226;2023-05-17T06:50:39;12.60;99.90
23801;DHT22;12081;48.614;10.226;2023-05-17T06:53:24;14.70;99.90
23801;DHT22;12081;48.614;10.226;2023-05-17T06:56:10;13.70;99.90
23801;DHT22;12081;48.614;10.226;2023-05-17T06:58:54;15.10;99.90
23801;DHT22;12081;48.614;10.226;2023-05-17T07:01:38;15.90;99.90
23801;DHT22;12081;48.614;10.226;2023-05-17T07:04:22;16.20;97.70
23801;DHT22;12081;48.614;10.226;2023-05-17T07:07:06;13.80;95.60
23801;DHT22;12081;48.614;10.226;2023-05-17T07:09:50;15.50;95.10
23801;DHT22;12081;48.614;10.226;2023-05-17T07:12:34;16.00;92.80
23801;DHT22;12081;48.614;10.226;2023-05-17T07:15:19;16.50;91.90
23801;DHT22;12081;48.614;10.226;2023-05-17T07:18:03;17.10;88.30
23801;DHT22;12081;48.614;10.226;2023-05-17T07:20:47;16.00;82.00
23801;DHT22;12081;48.614;10.226;2023-05-17T07:23:31;16.20;79.80
23801;DHT22;12081;48.614;10.226;2023-05-17T07:26:18;17.30;81.50
23801;DHT22;12081;48.614;10.226;2023-05-17T07:29:02;18.70;77.80
23801;DHT22;12081;48.614;10.226;2023-05-17T07:31:46;15.50;75.60
23801;DHT22;12081;48.614;10.226;2023-05-17T07:34:30;15.30;74.90
23801;DHT22;12081;48.614;10.226;2023-05-17T07:37:14;16.20;79.80
23801;DHT22;12081;48.614;10.226;2023-05-17T07:39:58;15.90;83.60
23801;DHT22;12081;48.614;10.226;2023-05-17T07:42:43;15.00;82.20
23801;DHT22;12081;48.614;10.226;2023-05-17T07:45:27;14.60;80.70
23801;DHT22;12081;48.614;10.226;2023-05-17T07:48:11;16.10;80.80
23801;DHT22;12081;48.614;10.226;2023-05-17T07:50:56;17.20;75.30
23801;DHT22;12081;48.614;10.226;2023-05-17T07:53:40;18.40;75.00
23801;DHT22;12081;48.614;10.226;2023-05-17T07:56:24;16.30;71.10
23801;DHT22;12081;48.614;10.226;2023-05-17T07:59:08;15.40;71.90
23801;DHT22;12081;48.614;10.226;2023-05-17T08:01:52;16.10;75.20
23801;DHT22;12081;48.614;10.226;2023-05-17T08:04:37;18.20;74.80
23801;DHT22;12081;48.614;10.226;2023-05-17T08:07:21;15.90;70.30
23801;DHT22;12081;48.614;10.226;2023-05-17T08:10:06;17.80;73.90
23801;DHT22;12081;48.614;10.226;2023-05-17T08:12:50;16.90;68.60
23801;DHT22;12081;48.614;10.226;2023-05-17T08:15:34;18.40;67.40
23801;DHT22;12081;48.614;10.226;2023-05-17T08:18:18;19.30;61.60
23801;DHT22;12081;48.614;10.226;2023-05-17T08:21:02;20.00;58.30
23801;DHT22;12081;48.614;10.226;2023-05-17T08:23:47;19.30;58.80
23801;DHT22;12081;48.614;10.226;2023-05-17T08:26:31;19.20;58.90
23801;DHT22;12081;48.614;10.226;2023-05-17T08:29:16;18.70;58.50
23801;DHT22;12081;48.614;10.226;2023-05-17T08:32:00;18.50;58.60
23801;DHT22;12081;48.614;10.226;2023-05-17T08:34:44;17.40;58.20
23801;DHT22;12081;48.614;10.226;2023-05-17T08:37:28;18.30;59.90
23801;DHT22;12081;48.614;10.226;2023-05-17T08:40:12;18.60;59.40
23801;DHT22;12081;48.614;10.226;2023-05-17T08:42:57;17.00;58.20
23801;DHT22;12081;48.614;10.226;2023-05-17T08:45:42;16.70;59.70
23801;DHT22;12081;48.614;10.226;2023-05-17T08:48:27;17.20;63.60
23801;DHT22;12081;48.614;10.226;2023-05-17T08:51:15;18.60;61.90
23801;DHT22;12081;48.614;10.226;2023-05-17T08:54:01;18.30;59.70
23801;DHT22;12081;48.614;10.226;2023-05-17T08:56:53;18.50;57.90
23801;DHT22;12081;48.614;10.226;2023-05-17T08:59:37;19.40;58.90
23801;DHT22;12081;48.614;10.226;2023-05-17T09:02:22;19.30;58.60
23801;DHT22;12081;48.614;10.226;2023-05-17T09:05:08;19.80;54.70
23801;DHT22;12081;48.614;10.226;2023-05-17T09:07:53;19.80;54.20
23801;DHT22;12081;48.614;10.226;2023-05-17T09:10:37;19.70;53.40
23801;DHT22;12081;48.614;10.226;2023-05-17T09:13:21;19.60;55.00
23801;DHT22;12081;48.614;10.226;2023-05-17T09:16:12;20.10;55.40
23801;DHT22;12081;48.614;10.226;2023-05-17T09:18:58;19.20;55.80
23801;DHT22;12081;48.614;10.226;2023-05-17T09:21:46;19.80;52.50
23801;DHT22;12081;48.614;10.226;2023-05-17T09:24:30;19.70;53.10
23801;DHT22;12081;48.614;10.226;2023-05-17T09:27:16;19.20;53.40
23801;DHT22;12081;48.614;10.226;2023-05-17T09:30:00;19.20;52.40
23801;DHT22;12081;48.614;10.226;2023-05-17T09:32:48;19.40;53.10
23801;DHT22;12081;48.614;10.226;2023-05-17T09:35:34;18.00;54.20
23801;DHT22;12081;48.614;10.226;2023-05-17T09:38:24;18.40;54.30
23801;DHT22;12081;48.614;10.226;2023-05-17T09:41:10;18.30;55.80
23801;DHT22;12081;48.614;10.226;2023-05-17T09:43:58;19.60;55.60
23801;DHT22;12081;48.614;10.226;2023-05-17T09:46:47;19.30;53.30
23801;DHT22;12081;48.614;10.226;2023-05-17T09:49:32;19.80;52.50
23801;DHT22;12081;48.614;10.226;2023-05-17T09:52:19;19.50;53.00
23801;DHT22;12081;48.614;10.226;2023-05-17T09:55:04;18.60;51.60
23801;DHT22;12081;48.614;10.226;2023-05-17T09:57:48;18.00;51.70
23801;DHT22;12081;48.614;10.226;2023-05-17T10:00:32;18.20;54.10
23801;DHT22;12081;48.614;10.226;2023-05-17T10:03:17;17.80;55.20
23801;DHT22;12081;48.614;10.226;2023-05-17T10:06:05;18.30;54.70
23801;DHT22;12081;48.614;10.226;2023-05-17T10:08:55;16.80;54.10
23801;DHT22;12081;48.614;10.226;2023-05-17T10:11:45;17.10;56.90
23801;DHT22;12081;48.614;10.226;2023-05-17T10:14:30;15.90;59.10
23801;DHT22;12081;48.614;10.226;2023-05-17T10:17:15;17.20;58.90
23801;DHT22;12081;48.614;10.226;2023-05-17T10:20:02;17.80;57.10
23801;DHT22;12081;48.614;10.226;2023-05-17T10:22:54;16.10;57.70
23801;DHT22;12081;48.614;10.226;2023-05-17T10:25:39;18.40;59.10
23801;DHT22;12081;48.614;10.226;2023-05-17T10:28:25;16.70;58.90
23801;DHT22;12081;48.614;10.226;2023-05-17T10:31:10;16.90;62.60
23801;DHT22;12081;48.614;10.226;2023-05-17T10:33:56;15.80;60.90
23801;DHT22;12081;48.614;10.226;2023-05-17T10:36:42;16.50;61.50
23801;DHT22;12081;48.614;10.226;2023-05-17T10:39:27;16.00;56.50
23801;DHT22;12081;48.614;10.226;2023-05-17T10:42:12;17.70;56.40
23801;DHT22;12081;48.614;10.226;2023-05-17T10:45:00;17.10;57.60
23801;DHT22;12081;48.614;10.226;2023-05-17T10:47:45;17.10;58.80
23801;DHT22;12081;48.614;10.226;2023-05-17T10:50:29;16.70;58.90
23801;DHT22;12081;48.614;10.226;2023-05-17T10:53:14;16.00;58.60
23801;DHT22;12081;48.614;10.226;2023-05-17T10:55:58;16.30;58.40
23801;DHT22;12081;48.614;10.226;2023-05-17T10:58:43;15.90;58.70
23801;DHT22;12081;48.614;10.226;2023-05-17T11:04:37;15.30;60.80
23801;DHT22;12081;48.614;10.226;2023-05-17T11:07:23;15.10;62.80
23801;DHT22;12081;48.614;10.226;2023-05-17T11:10:10;18.40;63.60
23801;DHT22;12081;48.614;10.226;2023-05-17T11:12:55;16.90;63.10
23801;DHT22;12081;48.614;10.226;2023-05-17T11:15:40;17.90;61.00
23801;DHT22;12081;48.614;10.226;2023-05-17T11:18:24;16.30;57.00
23801;DHT22;12081;48.614;10.226;2023-05-17T11:21:08;16.40;57.90
23801;DHT22;12081;48.614;10.226;2023-05-17T11:24:00;17.60;57.20
23801;DHT22;12081;48.614;10.226;2023-05-17T11:26:45;17.40;56.20
23801;DHT22;12081;48.614;10.226;2023-05-17T11:29:29;17.70;57.00
23801;DHT22;12081;48.614;10.226;2023-05-17T11:32:14;20.40;57.50
23801;DHT22;12081;48.614;10.226;2023-05-17T11:34:59;17.00;57.60
23801;DHT22;12081;48.614;10.226;2023-05-17T11:37:44;16.50;58.50
23801;DHT22;12081;48.614;10.226;2023-05-17T11:40:28;16.30;59.80
23801;DHT22;12081;48.614;10.226;2023-05-17T11:43:16;16.40;60.30
23801;DHT22;12081;48.614;10.226;2023-05-17T11:46:02;16.50;60.20
23801;DHT22;12081;48.614;10.226;2023-05-17T11:48:50;16.70;60.10
23801;DHT22;12081;48.614;10.226;2023-05-17T11:51:37;19.20;62.60
23801;DHT22;12081;48.614;10.226;2023-05-17T11:54:24;17.20;61.20
23801;DHT22;12081;48.614;10.226;2023-05-17T11:57:10;16.80;61.00
23801;DHT22;12081;48.614;10.226;2023-05-17T12:00:00;17.60;60.20
23801;DHT22;12081;48.614;10.226;2023-05-17T12:02:46;20.40;60.30
23801;DHT22;12081;48.614;10.226;2023-05-17T12:05:31;17.30;59.60
23801;DHT22;12081;48.614;10.226;2023-05-17T12:08:17;16.30;63.30
23801;DHT22;12081;48.614;10.226;2023-05-17T12:11:02;17.40;61.80
23801;DHT22;12081;48.614;10.226;2023-05-17T12:13:47;17.20;61.40
23801;DHT22;12081;48.614;10.226;2023-05-17T12:16:33;18.30;62.10
23801;DHT22;12081;48.614;10.226;2023-05-17T12:19:19;18.90;59.70
23801;DHT22;12081;48.614;10.226;2023-05-17T12:22:09;19.10;58.30
23801;DHT22;12081;48.614;10.226;2023-05-17T12:24:56;19.50;55.10
23801;DHT22;12081;48.614;10.226;2023-05-17T12:27:41;19.70;54.40
23801;DHT22;12081;48.614;10.226;2023-05-17T12:30:25;20.80;55.60
23801;DHT22;12081;48.614;10.226;2023-05-17T12:33:10;18.20;55.90
23801;DHT22;12081;48.614;10.226;2023-05-17T12:35:55;18.70;57.60
23801;DHT22;12081;48.614;10.226;2023-05-17T12:38:40;17.90;58.50
23801;DHT22;12081;48.614;10.226;2023-05-17T12:41:25;19.00;59.30
23801;DHT22;12081;48.614;10.226;2023-05-17T12:44:10;16.70;59.20
23801;DHT22;12081;48.614;10.226;2023-05-17T12:46:54;17.80;59.50
23801;DHT22;12081;48.614;10.226;2023-05-17T12:49:53;17.10;59.70
23801;DHT22;12081;48.614;10.226;2023-05-17T12:52:39;16.90;58.70
23801;DHT22;12081;48.614;10.226;2023-05-17T12:55:24;16.70;58.60
23801;DHT22;12081;48.614;10.226;2023-05-17T12:58:08;17.20;59.90
23801;DHT22;12081;48.614;10.226;2023-05-17T13:01:03;17.20;61.80
23801;DHT22;12081;48.614;10.226;2023-05-17T13:03:51;15.90;59.80
23801;DHT22;12081;48.614;10.226;2023-05-17T13:06:58;16.10;60.70
23801;DHT22;12081;48.614;10.226;2023-05-17T13:09:46;16.10;59.80
23801;DHT22;12081;48.614;10.226;2023-05-17T13:12:30;16.90;63.20
23801;DHT22;12081;48.614;10.226;2023-05-17T13:15:15;16.90;65.70
23801;DHT22;12081;48.614;10.226;2023-05-17T13:17:59;18.10;66.50
23801;DHT22;12081;48.614;10.226;2023-05-17T13:20:43;17.00;65.50
23801;DHT22;12081;48.614;10.226;2023-05-17T13:23:28;15.60;64.20
23801;DHT22;12081;48.614;10.226;2023-05-17T13:26:12;18.80;66.70
23801;DHT22;12081;48.614;10.226;2023-05-17T13:28:56;16.10;62.00
23801;DHT22;12081;48.614;10.226;2023-05-17T13:31:40;18.30;62.90
23801;DHT22;12081;48.614;10.226;2023-05-17T13:34:25;18.10;64.80
23801;DHT22;12081;48.614;10.226;2023-05-17T13:37:09;17.50;64.80
23801;DHT22;12081;48.614;10.226;2023-05-17T13:39:53;17.50;66.60
23801;DHT22;12081;48.614;10.226;2023-05-17T13:42:39;16.70;67.20
23801;DHT22;12081;48.614;10.226;2023-05-17T13:45:23;16.70;67.10
23801;DHT22;12081;48.614;10.226;2023-05-17T13:48:08;15.30;68.20
23801;DHT22;12081;48.614;10.226;2023-05-17T13:50:52;18.20;69.50
23801;DHT22;12081;48.614;10.226;2023-05-17T13:53:36;17.90;69.80
23801;DHT22;12081;48.614;10.226;2023-05-17T13:56:21;15.60;67.30
23801;DHT22;12081;48.614;10.226;2023-05-17T13:59:05;15.60;67.80
23801;DHT22;12081;48.614;10.226;2023-05-17T14:01:49;17.30;69.00
23801;DHT22;12081;48.614;10.226;2023-05-17T14:04:33;16.70;67.60
23801;DHT22;12081;48.614;10.226;2023-05-17T14:07:18;15.60;69.00
23801;DHT22;12081;48.614;10.226;2023-05-17T14:10:02;18.40;71.00
23801;DHT22;12081;48.614;10.226;2023-05-17T14:12:47;15.60;68.30
23801;DHT22;12081;48.614;10.226;2023-05-17T14:15:31;18.10;70.70
23801;DHT22;12081;48.614;10.226;2023-05-17T14:18:21;15.60;67.10
23801;DHT22;12081;48.614;10.226;2023-05-17T14:21:05;17.80;71.40
23801;DHT22;12081;48.614;10.226;2023-05-17T14:23:50;17.60;71.00
23801;DHT22;12081;48.614;10.226;2023-05-17T14:26:35;15.10;69.60
23801;DHT22;12081;48.614;10.226;2023-05-17T14:29:20;15.80;69.70
23801;DHT22;12081;48.614;10.226;2023-05-17T14:32:04;17.40;70.30
23801;DHT22;12081;48.614;10.226;2023-05-17T14:34:49;17.00;71.00
23801;DHT22;12081;48.614;10.226;2023-05-17T14:37:34;15.30;70.40
23801;DHT22;12081;48.614;10.226;2023-05-17T14:40:18;15.50;68.70
23801;DHT22;12081;48.614;10.226;2023-05-17T14:43:02;15.00;69.50
23801;DHT22;12081;48.614;10.226;2023-05-17T14:45:47;16.50;72.00
23801;DHT22;12081;48.614;10.226;2023-05-17T14:48:31;16.00;71.80
23801;DHT22;12081;48.614;10.226;2023-05-17T14:51:17;15.10;72.30
23801;DHT22;12081;48.614;10.226;2023-05-17T14:54:02;16.80;72.30
23801;DHT22;12081;48.614;10.226;2023-05-17T14:56:46;14.90;70.90
23801;DHT22;12081;48.614;10.226;2023-05-17T14:59:31;15.60;72.80
23801;DHT22;12081;48.614;10.226;2023-05-17T15:02:15;17.20;73.30
23801;DHT22;12081;48.614;10.226;2023-05-17T15:04:59;16.60;74.20
23801;DHT22;12081;48.614;10.226;2023-05-17T15:07:45;14.20;73.40
23801;DHT22;12081;48.614;10.226;2023-05-17T15:10:30;17.10;75.30
23801;DHT22;12081;48.614;10.226;2023-05-17T15:13:15;16.10;75.80
23801;DHT22;12081;48.614;10.226;2023-05-17T15:16:01;15.10;76.10
23801;DHT22;12081;48.614;10.226;2023-05-17T15:18:46;15.70;76.40
23801;DHT22;12081;48.614;10.226;2023-05-17T15:21:30;13.60;75.90
23801;DHT22;12081;48.614;10.226;2023-05-17T15:24:15;13.40;75.80
23801;DHT22;12081;48.614;10.226;2023-05-17T15:26:59;13.30;76.50
23801;DHT22;12081;48.614;10.226;2023-05-17T15:29:43;14.00;75.90
23801;DHT22;12081;48.614;10.226;2023-05-17T15:32:27;15.40;78.70
23801;DHT22;12081;48.614;10.226;2023-05-17T15:35:11;13.30;79.20
23801;DHT22;12081;48.614;10.226;2023-05-17T15:37:57;13.40;82.00
23801;DHT22;12081;48.614;10.226;2023-05-17T15:40:42;16.90;80.90
23801;DHT22;12081;48.614;10.226;2023-05-17T15:43:26;16.40;80.30
23801;DHT22;12081;48.614;10.226;2023-05-17T15:46:10;16.50;80.90
23801;DHT22;12081;48.614;10.226;2023-05-17T15:48:55;16.00;79.60
23801;DHT22;12081;48.614;10.226;2023-05-17T15:51:39;15.10;78.70
23801;DHT22;12081;48.614;10.226;2023-05-17T15:54:23;14.10;78.00
23801;DHT22;12081;48.614;10.226;2023-05-17T15:57:08;14.90;80.40
23801;DHT22;12081;48.614;10.226;2023-05-17T15:59:52;15.30;80.70
23801;DHT22;12081;48.614;10.226;2023-05-17T16:02:36;13.40;80.00
23801;DHT22;12081;48.614;10.226;2023-05-17T16:05:20;16.30;82.80
23801;DHT22;12081;48.614;10.226;2023-05-17T16:08:06;13.50;80.70
23801;DHT22;12081;48.614;10.226;2023-05-17T16:10:51;13.60;80.50
23801;DHT22;12081;48.614;10.226;2023-05-17T16:13:35;15.70;82.00
23801;DHT22;12081;48.614;10.226;2023-05-17T16:16:19;15.30;81.60
23801;DHT22;12081;48.614;10.226;2023-05-17T16:19:03;15.40;82.50
23801;DHT22;12081;48.614;10.226;2023-05-17T16:21:48;14.40;82.40
23801;DHT22;12081;48.614;10.226;2023-05-17T16:24:33;12.80;82.40
23801;DHT22;12081;48.614;10.226;2023-05-17T16:27:18;12.70;83.80
23801;DHT22;12081;48.614;10.226;2023-05-17T16:30:03;14.80;84.60
23801;DHT22;12081;48.614;10.226;2023-05-17T16:32:47;12.70;83.50
23801;DHT22;12081;48.614;10.226;2023-05-17T16:35:33;12.60;84.10
23801;DHT22;12081;48.614;10.226;2023-05-17T16:38:18;14.60;86.20
23801;DHT22;12081;48.614;10.226;2023-05-17T16:41:01;14.90;86.10
23801;DHT22;12081;48.614;10.226;2023-05-17T16:43:45;15.20;86.90
23801;DHT22;12081;48.614;10.226;2023-05-17T16:46:30;15.20;85.70
23801;DHT22;12081;48.614;10.226;2023-05-17T16:49:14;14.80;86.30
23801;DHT22;12081;48.614;10.226;2023-05-17T16:51:58;14.60;86.40
23801;DHT22;12081;48.614;10.226;2023-05-17T16:54:42;14.50;86.30
23801;DHT22;12081;48.614;10.226;2023-05-17T16:57:26;14.70;86.60
23801;DHT22;12081;48.614;10.226;2023-05-17T17:00:11;14.60;84.40
23801;DHT22;12081;48.614;10.226;2023-05-17T17:02:57;12.30;84.00
23801;DHT22;12081;48.614;10.226;2023-05-17T17:05:42;14.70;84.30
23801;DHT22;12081;48.614;10.226;2023-05-17T17:08:26;14.70;84.70
23801;DHT22;12081;48.614;10.226;2023-05-17T17:11:10;13.70;85.20
23801;DHT22;12081;48.614;10.226;2023-05-17T17:13:55;12.20;83.50
23801;DHT22;12081;48.614;10.226;2023-05-17T17:16:39;13.90;84.20
23801;DHT22;12081;48.614;10.226;2023-05-17T17:19:23;14.40;85.40
23801;DHT22;12081;48.614;10.226;2023-05-17T17:22:07;13.70;84.40
23801;DHT22;12081;48.614;10.226;2023-05-17T17:24:54;15.10;86.70
23801;DHT22;12081;48.614;10.226;2023-05-17T17:27:40;11.90;86.10
23801;DHT22;12081;48.614;10.226;2023-05-17T17:30:24;14.30;87.80
23801;DHT22;12081;48.614;10.226;2023-05-17T17:33:08;14.50;87.80
23801;DHT22;12081;48.614;10.226;2023-05-17T17:35:53;11.70;88.20
23801;DHT22;12081;48.614;10.226;2023-05-17T17:38:37;14.70;89.00
23801;DHT22;12081;48.614;10.226;2023-05-17T17:41:21;11.80;87.80
23801;DHT22;12081;48.614;10.226;2023-05-17T17:44:06;14.30;90.20
23801;DHT22;12081;48.614;10.226;2023-05-17T17:46:50;11.60;88.40
23801;DHT22;12081;48.614;10.226;2023-05-17T17:49:34;11.50;89.80
23801;DHT22;12081;48.614;10.226;2023-05-17T17:52:19;11.40;90.30
23801;DHT22;12081;48.614;10.226;2023-05-17T17:55:04;14.70;92.00
23801;DHT22;12081;48.614;10.226;2023-05-17T17:57:49;11.10;91.90
23801;DHT22;12081;48.614;10.226;2023-05-17T18:00:34;11.00;92.30
23801;DHT22;12081;48.614;10.226;2023-05-17T18:03:18;10.90;93.50
23801;DHT22;12081;48.614;10.226;2023-05-17T18:06:03;13.20;95.00
23801;DHT22;12081;48.614;10.226;2023-05-17T18:08:48;10.60;95.80
23801;DHT22;12081;48.614;10.226;2023-05-17T18:11:33;10.40;97.00
23801;DHT22;12081;48.614;10.226;2023-05-17T18:14:16;10.40;98.00
23801;DHT22;12081;48.614;10.226;2023-05-17T18:17:01;11.40;98.70
23801;DHT22;12081;48.614;10.226;2023-05-17T18:19:45;12.90;99.90
23801;DHT22;12081;48.614;10.226;2023-05-17T18:22:29;10.10;99.90
23801;DHT22;12081;48.614;10.226;2023-05-17T18:25:13;10.00;99.90
23801;DHT22;12081;48.614;10.226;2023-05-17T18:27:57;9.90;99.90
23801;DHT22;12081;48.614;10.226;2023-05-17T18:30:41;11.10;99.90
23801;DHT22;12081;48.614;10.226;2023-05-17T18:33:25;12.60;99.90
23801;DHT22;12081;48.614;10.226;2023-05-17T18:36:10;9.60;99.90
23801;DHT22;12081;48.614;10.226;2023-05-17T18:38:54;12.30;99.90
23801;DHT22;12081;48.614;10.226;2023-05-17T18:41:41;11.90;99.90
23801;DHT22;12081;48.614;10.226;2023-05-17T18:44:26;9.20;99.90
23801;DHT22;12081;48.614;10.226;2023-05-17T18:47:10;9.10;99.90
23801;DHT22;12081;48.614;10.226;2023-05-17T18:49:54;11.90;99.90
23801;DHT22;12081;48.614;10.226;2023-05-17T18:52:38;8.90;99.90
23801;DHT22;12081;48.614;10.226;2023-05-17T18:55:23;8.80;99.90
23801;DHT22;12081;48.614;10.226;2023-05-17T18:58:07;11.30;99.90
23801;DHT22;12081;48.614;10.226;2023-05-17T19:00:51;11.00;99.90
23801;DHT22;12081;48.614;10.226;2023-05-17T19:03:35;9.80;99.90
23801;DHT22;12081;48.614;10.226;2023-05-17T19:06:20;8.40;99.90
23801;DHT22;12081;48.614;10.226;2023-05-17T19:09:04;8.20;99.90
23801;DHT22;12081;48.614;10.226;2023-05-17T19:11:48;8.20;99.90
23801;DHT22;12081;48.614;10.226;2023-05-17T19:14:32;8.10;99.90
23801;DHT22;12081;48.614;10.226;2023-05-17T19:17:16;8.00;99.90
23801;DHT22;12081;48.614;10.226;2023-05-17T19:20:02;8.00;99.90
23801;DHT22;12081;48.614;10.226;2023-05-17T19:22:47;7.90;99.90
23801;DHT22;12081;48.614;10.226;2023-05-17T19:25:31;10.10;99.90
23801;DHT22;12081;48.614;10.226;2023-05-17T19:28:17;7.60;99.90
23801;DHT22;12081;48.614;10.226;2023-05-17T19:31:02;7.50;99.90
23801;DHT22;12081;48.614;10.226;2023-05-17T19:33:46;7.40;99.90
23801;DHT22;12081;48.614;10.226;2023-05-17T19:36:30;10.40;99.90
23801;DHT22;12081;48.614;10.226;2023-05-17T19:39:15;7.30;99.90
23801;DHT22;12081;48.614;10.226;2023-05-17T19:42:01;7.20;99.90
23801;DHT22;12081;48.614;10.226;2023-05-17T19:44:45;9.50;99.90
23801;DHT22;12081;48.614;10.226;2023-05-17T19:47:29;8.60;99.90
23801;DHT22;12081;48.614;10.226;2023-05-17T19:50:13;10.00;99.90
23801;DHT22;12081;48.614;10.226;2023-05-17T19:52:59;7.00;99.90
23801;DHT22;12081;48.614;10.226;2023-05-17T19:55:43;6.80;99.90
23801;DHT22;12081;48.614;10.226;2023-05-17T19:58:27;9.50;99.90
23801;DHT22;12081;48.614;10.226;2023-05-17T20:01:12;6.70;99.90
23801;DHT22;12081;48.614;10.226;2023-05-17T20:03:56;6.60;99.90
23801;DHT22;12081;48.614;10.226;2023-05-17T20:06:40;6.60;99.90
23801;DHT22;12081;48.614;10.226;2023-05-17T20:09:25;6.60;99.90
23801;DHT22;12081;48.614;10.226;2023-05-17T20:12:18;6.50;99.90
23801;DHT22;12081;48.614;10.226;2023-05-17T20:15:03;7.70;99.90
23801;DHT22;12081;48.614;10.226;2023-05-17T20:17:49;6.30;99.90
23801;DHT22;12081;48.614;10.226;2023-05-17T20:20:33;6.40;99.90
23801;DHT22;12081;48.614;10.226;2023-05-17T20:23:18;6.30;99.90